sensor_id;sensor_type;location;lat;lon;timestamp;P1;durP1;ratioP1;P2;durP2;ratioP2
39896;SDS011;25567;48.276;14.242;2023-07-09T00:01:15;9.40;;;6.03;;
39896;SDS011;25567;48.276;14.242;2023-07-09T00:03:47;19.08;;;6.22;;
39896;SDS011;25567;48.276;14.242;2023-07-09T00:06:20;12.10;;;6.45;;
39896;SDS011;25567;48.276;14.242;2023-07-09T00:08:48;9.55;;;6.13;;
39896;SDS011;25567;48.276;14.242;2023-07-09T00:11:15;12.15;;;6.05;;
39896;SDS011;25567;48.276;14.242;2023-07-09T00:13:41;11.98;;;6.40;;
39896;SDS011;25567;48.276;14.242;2023-07-09T00:16:26;13.80;;;6.90;;
39896;SDS011;25567;48.276;14.242;2023-07-09T00:18:53;11.85;;;6.60;;
39896;SDS011;25567;48.276;14.242;2023-07-09T00:21:20;14.30;;;7.47;;
39896;SDS011;25567;48.276;14.242;2023-07-09T00:23:46;14.65;;;7.90;;
39896;SDS011;25567;48.276;14.242;2023-07-09T00:26:16;14.05;;;7.70;;
39896;SDS011;25567;48.276;14.242;2023-07-09T00:28:44;11.65;;;7.25;;
39896;SDS011;25567;48.276;14.242;2023-07-09T00:31:11;13.82;;;6.97;;
39896;SDS011;25567;48.276;14.242;2023-07-09T00:33:40;15.25;;;7.25;;
39896;SDS011;25567;48.276;14.242;2023-07-09T00:36:18;13.15;;;6.85;;
39896;SDS011;25567;48.276;14.242;2023-07-09T00:38:45;12.73;;;6.28;;
39896;SDS011;25567;48.276;14.242;2023-07-09T00:41:16;11.80;;;6.22;;
39896;SDS011;25567;48.276;14.242;2023-07-09T00:43:44;10.20;;;6.22;;
39896;SDS011;25567;48.276;14.242;2023-07-09T00:48:37;11.75;;;6.05;;
39896;SDS011;25567;48.276;14.242;2023-07-09T00:51:04;12.50;;;6.40;;
39896;SDS011;25567;48.276;14.242;2023-07-09T00:53:36;10.05;;;6.03;;
39896;SDS011;25567;48.276;14.242;2023-07-09T00:56:07;9.48;;;5.82;;
39896;SDS011;25567;48.276;14.242;2023-07-09T00:58:36;11.38;;;5.72;;
39896;SDS011;25567;48.276;14.242;2023-07-09T01:01:05;10.95;;;6.25;;
39896;SDS011;25567;48.276;14.242;2023-07-09T01:03:35;12.13;;;5.25;;
39896;SDS011;25567;48.276;14.242;2023-07-09T01:06:03;13.57;;;5.80;;
39896;SDS011;25567;48.276;14.242;2023-07-09T01:08:33;11.18;;;6.00;;
39896;SDS011;25567;48.276;14.242;2023-07-09T01:11:00;12.05;;;6.43;;
39896;SDS011;25567;48.276;14.242;2023-07-09T01:13:27;9.77;;;5.45;;
39896;SDS011;25567;48.276;14.242;2023-07-09T01:15:55;14.55;;;8.23;;
39896;SDS011;25567;48.276;14.242;2023-07-09T01:18:22;18.77;;;10.20;;
39896;SDS011;25567;48.276;14.242;2023-07-09T01:20:51;20.50;;;10.63;;
39896;SDS011;25567;48.276;14.242;2023-07-09T01:23:19;18.00;;;10.43;;
39896;SDS011;25567;48.276;14.242;2023-07-09T01:25:46;17.20;;;10.48;;
39896;SDS011;25567;48.276;14.242;2023-07-09T01:28:18;19.75;;;9.50;;
39896;SDS011;25567;48.276;14.242;2023-07-09T01:30:46;16.50;;;9.73;;
39896;SDS011;25567;48.276;14.242;2023-07-09T01:33:21;17.90;;;9.65;;
39896;SDS011;25567;48.276;14.242;2023-07-09T01:35:48;22.23;;;10.43;;
39896;SDS011;25567;48.276;14.242;2023-07-09T01:38:15;16.45;;;10.65;;
39896;SDS011;25567;48.276;14.242;2023-07-09T01:40:42;18.92;;;11.05;;
39896;SDS011;25567;48.276;14.242;2023-07-09T01:43:09;21.58;;;10.43;;
39896;SDS011;25567;48.276;14.242;2023-07-09T01:45:36;21.35;;;10.45;;
39896;SDS011;25567;48.276;14.242;2023-07-09T01:48:03;24.23;;;10.73;;
39896;SDS011;25567;48.276;14.242;2023-07-09T01:50:30;18.23;;;8.60;;
39896;SDS011;25567;48.276;14.242;2023-07-09T01:52:56;22.15;;;10.43;;
39896;SDS011;25567;48.276;14.242;2023-07-09T01:55:23;21.08;;;11.15;;
39896;SDS011;25567;48.276;14.242;2023-07-09T01:57:50;20.98;;;12.18;;
39896;SDS011;25567;48.276;14.242;2023-07-09T02:00:18;19.35;;;9.95;;
39896;SDS011;25567;48.276;14.242;2023-07-09T02:02:46;19.50;;;9.75;;
39896;SDS011;25567;48.276;14.242;2023-07-09T02:05:14;14.70;;;8.57;;
39896;SDS011;25567;48.276;14.242;2023-07-09T02:07:41;16.65;;;8.73;;
39896;SDS011;25567;48.276;14.242;2023-07-09T02:10:08;16.48;;;8.50;;
39896;SDS011;25567;48.276;14.242;2023-07-09T02:12:35;16.00;;;9.70;;
39896;SDS011;25567;48.276;14.242;2023-07-09T02:15:01;13.57;;;8.95;;
39896;SDS011;25567;48.276;14.242;2023-07-09T02:17:28;14.25;;;9.13;;
39896;SDS011;25567;48.276;14.242;2023-07-09T02:19:55;11.88;;;7.68;;
39896;SDS011;25567;48.276;14.242;2023-07-09T02:22:21;18.15;;;8.68;;
39896;SDS011;25567;48.276;14.242;2023-07-09T02:24:48;17.25;;;8.07;;
39896;SDS011;25567;48.276;14.242;2023-07-09T02:27:16;13.57;;;7.65;;
39896;SDS011;25567;48.276;14.242;2023-07-09T02:29:42;14.35;;;8.20;;
39896;SDS011;25567;48.276;14.242;2023-07-09T02:32:09;14.68;;;7.55;;
39896;SDS011;25567;48.276;14.242;2023-07-09T02:34:36;12.90;;;7.63;;
39896;SDS011;25567;48.276;14.242;2023-07-09T02:37:02;15.65;;;7.60;;
39896;SDS011;25567;48.276;14.242;2023-07-09T02:39:29;19.45;;;7.72;;
39896;SDS011;25567;48.276;14.242;2023-07-09T02:41:55;13.20;;;7.55;;
39896;SDS011;25567;48.276;14.242;2023-07-09T02:44:22;12.18;;;7.20;;
39896;SDS011;25567;48.276;14.242;2023-07-09T02:46:48;13.70;;;6.97;;
39896;SDS011;25567;48.276;14.242;2023-07-09T02:49:15;17.58;;;7.25;;
39896;SDS011;25567;48.276;14.242;2023-07-09T02:51:42;13.95;;;7.53;;
39896;SDS011;25567;48.276;14.242;2023-07-09T02:54:08;13.35;;;7.18;;
39896;SDS011;25567;48.276;14.242;2023-07-09T02:56:35;13.95;;;7.13;;
39896;SDS011;25567;48.276;14.242;2023-07-09T02:59:02;12.63;;;7.43;;
39896;SDS011;25567;48.276;14.242;2023-07-09T03:01:28;13.90;;;8.20;;
39896;SDS011;25567;48.276;14.242;2023-07-09T03:03:55;16.60;;;7.55;;
39896;SDS011;25567;48.276;14.242;2023-07-09T03:06:22;13.52;;;7.28;;
39896;SDS011;25567;48.276;14.242;2023-07-09T03:08:49;13.02;;;7.45;;
39896;SDS011;25567;48.276;14.242;2023-07-09T03:11:16;11.05;;;6.90;;
39896;SDS011;25567;48.276;14.242;2023-07-09T03:13:43;17.80;;;7.13;;
39896;SDS011;25567;48.276;14.242;2023-07-09T03:16:09;11.75;;;6.47;;
39896;SDS011;25567;48.276;14.242;2023-07-09T03:18:36;13.63;;;6.88;;
39896;SDS011;25567;48.276;14.242;2023-07-09T03:21:03;13.45;;;6.63;;
39896;SDS011;25567;48.276;14.242;2023-07-09T03:23:29;12.02;;;6.90;;
39896;SDS011;25567;48.276;14.242;2023-07-09T03:25:56;12.18;;;6.78;;
39896;SDS011;25567;48.276;14.242;2023-07-09T03:28:23;17.02;;;7.25;;
39896;SDS011;25567;48.276;14.242;2023-07-09T03:30:52;12.38;;;7.40;;
39896;SDS011;25567;48.276;14.242;2023-07-09T03:33:19;12.05;;;7.30;;
39896;SDS011;25567;48.276;14.242;2023-07-09T03:35:46;16.40;;;7.18;;
39896;SDS011;25567;48.276;14.242;2023-07-09T03:38:12;12.25;;;7.22;;
39896;SDS011;25567;48.276;14.242;2023-07-09T03:40:39;11.88;;;7.13;;
39896;SDS011;25567;48.276;14.242;2023-07-09T03:43:05;13.20;;;7.07;;
39896;SDS011;25567;48.276;14.242;2023-07-09T03:45:32;12.30;;;7.03;;
39896;SDS011;25567;48.276;14.242;2023-07-09T03:47:59;13.23;;;7.53;;
39896;SDS011;25567;48.276;14.242;2023-07-09T03:50:26;14.32;;;7.15;;
39896;SDS011;25567;48.276;14.242;2023-07-09T03:52:52;15.43;;;6.68;;
39896;SDS011;25567;48.276;14.242;2023-07-09T03:55:19;15.32;;;7.20;;
39896;SDS011;25567;48.276;14.242;2023-07-09T03:57:46;14.75;;;7.40;;
39896;SDS011;25567;48.276;14.242;2023-07-09T04:00:13;14.43;;;7.00;;
39896;SDS011;25567;48.276;14.242;2023-07-09T04:02:40;15.35;;;6.93;;
39896;SDS011;25567;48.276;14.242;2023-07-09T04:05:07;14.80;;;7.30;;
39896;SDS011;25567;48.276;14.242;2023-07-09T04:07:37;15.50;;;7.32;;
39896;SDS011;25567;48.276;14.242;2023-07-09T04:10:04;11.55;;;6.80;;
39896;SDS011;25567;48.276;14.242;2023-07-09T04:12:31;18.80;;;6.85;;
39896;SDS011;25567;48.276;14.242;2023-07-09T04:14:58;13.13;;;7.65;;
39896;SDS011;25567;48.276;14.242;2023-07-09T04:17:24;13.10;;;7.72;;
39896;SDS011;25567;48.276;14.242;2023-07-09T04:19:51;12.15;;;6.47;;
39896;SDS011;25567;48.276;14.242;2023-07-09T04:22:17;16.80;;;7.10;;
39896;SDS011;25567;48.276;14.242;2023-07-09T04:24:44;14.85;;;7.80;;
39896;SDS011;25567;48.276;14.242;2023-07-09T04:27:11;18.73;;;8.32;;
39896;SDS011;25567;48.276;14.242;2023-07-09T04:29:40;14.18;;;7.50;;
39896;SDS011;25567;48.276;14.242;2023-07-09T04:32:15;13.70;;;7.53;;
39896;SDS011;25567;48.276;14.242;2023-07-09T04:34:42;15.93;;;6.93;;
39896;SDS011;25567;48.276;14.242;2023-07-09T04:37:09;14.82;;;7.43;;
39896;SDS011;25567;48.276;14.242;2023-07-09T04:39:36;13.88;;;8.18;;
39896;SDS011;25567;48.276;14.242;2023-07-09T04:42:02;13.18;;;7.93;;
39896;SDS011;25567;48.276;14.242;2023-07-09T04:44:29;12.07;;;7.78;;
39896;SDS011;25567;48.276;14.242;2023-07-09T04:46:55;18.52;;;7.85;;
39896;SDS011;25567;48.276;14.242;2023-07-09T04:49:22;11.32;;;7.18;;
39896;SDS011;25567;48.276;14.242;2023-07-09T04:51:49;15.18;;;7.55;;
39896;SDS011;25567;48.276;14.242;2023-07-09T04:54:15;12.73;;;7.90;;
39896;SDS011;25567;48.276;14.242;2023-07-09T04:56:42;12.15;;;7.93;;
39896;SDS011;25567;48.276;14.242;2023-07-09T04:59:12;20.02;;;8.55;;
39896;SDS011;25567;48.276;14.242;2023-07-09T05:01:38;19.45;;;8.20;;
39896;SDS011;25567;48.276;14.242;2023-07-09T05:04:05;16.83;;;8.25;;
39896;SDS011;25567;48.276;14.242;2023-07-09T05:06:33;19.35;;;9.15;;
39896;SDS011;25567;48.276;14.242;2023-07-09T05:09:00;16.70;;;9.43;;
39896;SDS011;25567;48.276;14.242;2023-07-09T05:11:27;17.17;;;9.48;;
39896;SDS011;25567;48.276;14.242;2023-07-09T05:13:53;13.05;;;8.05;;
39896;SDS011;25567;48.276;14.242;2023-07-09T05:16:20;16.77;;;9.02;;
39896;SDS011;25567;48.276;14.242;2023-07-09T05:18:47;16.55;;;8.57;;
39896;SDS011;25567;48.276;14.242;2023-07-09T05:21:13;16.02;;;8.27;;
39896;SDS011;25567;48.276;14.242;2023-07-09T05:23:40;14.38;;;8.73;;
39896;SDS011;25567;48.276;14.242;2023-07-09T05:26:06;17.73;;;8.85;;
39896;SDS011;25567;48.276;14.242;2023-07-09T05:28:33;17.75;;;9.00;;
39896;SDS011;25567;48.276;14.242;2023-07-09T05:30:59;15.07;;;9.20;;
39896;SDS011;25567;48.276;14.242;2023-07-09T05:33:26;15.05;;;9.13;;
39896;SDS011;25567;48.276;14.242;2023-07-09T05:35:53;15.63;;;9.55;;
39896;SDS011;25567;48.276;14.242;2023-07-09T05:38:20;16.33;;;9.98;;
39896;SDS011;25567;48.276;14.242;2023-07-09T05:40:46;18.58;;;8.95;;
39896;SDS011;25567;48.276;14.242;2023-07-09T05:43:13;19.10;;;9.23;;
39896;SDS011;25567;48.276;14.242;2023-07-09T05:45:39;14.00;;;8.18;;
39896;SDS011;25567;48.276;14.242;2023-07-09T05:48:06;18.90;;;9.48;;
39896;SDS011;25567;48.276;14.242;2023-07-09T05:50:33;18.10;;;9.55;;
39896;SDS011;25567;48.276;14.242;2023-07-09T05:53:00;18.95;;;9.30;;
39896;SDS011;25567;48.276;14.242;2023-07-09T05:55:27;17.98;;;9.40;;
39896;SDS011;25567;48.276;14.242;2023-07-09T05:57:54;18.17;;;8.95;;
39896;SDS011;25567;48.276;14.242;2023-07-09T06:00:20;25.27;;;9.40;;
39896;SDS011;25567;48.276;14.242;2023-07-09T06:02:47;14.65;;;8.20;;
39896;SDS011;25567;48.276;14.242;2023-07-09T06:05:14;14.80;;;8.23;;
39896;SDS011;25567;48.276;14.242;2023-07-09T06:07:41;17.38;;;8.13;;
39896;SDS011;25567;48.276;14.242;2023-07-09T06:10:08;13.95;;;8.65;;
39896;SDS011;25567;48.276;14.242;2023-07-09T06:12:35;15.88;;;8.30;;
39896;SDS011;25567;48.276;14.242;2023-07-09T06:15:01;10.50;;;7.57;;
39896;SDS011;25567;48.276;14.242;2023-07-09T06:17:28;14.55;;;8.43;;
39896;SDS011;25567;48.276;14.242;2023-07-09T06:19:55;22.75;;;8.27;;
39896;SDS011;25567;48.276;14.242;2023-07-09T06:22:24;17.70;;;8.00;;
39896;SDS011;25567;48.276;14.242;2023-07-09T06:24:51;15.13;;;7.90;;
39896;SDS011;25567;48.276;14.242;2023-07-09T06:27:17;18.38;;;8.43;;
39896;SDS011;25567;48.276;14.242;2023-07-09T06:29:44;15.98;;;7.75;;
39896;SDS011;25567;48.276;14.242;2023-07-09T06:32:11;15.43;;;7.90;;
39896;SDS011;25567;48.276;14.242;2023-07-09T06:34:37;18.20;;;7.90;;
39896;SDS011;25567;48.276;14.242;2023-07-09T06:37:04;14.07;;;7.65;;
39896;SDS011;25567;48.276;14.242;2023-07-09T06:39:31;16.92;;;9.27;;
39896;SDS011;25567;48.276;14.242;2023-07-09T06:41:58;18.42;;;8.27;;
39896;SDS011;25567;48.276;14.242;2023-07-09T06:44:24;19.25;;;8.43;;
39896;SDS011;25567;48.276;14.242;2023-07-09T06:46:52;16.95;;;8.70;;
39896;SDS011;25567;48.276;14.242;2023-07-09T06:49:18;14.25;;;7.50;;
39896;SDS011;25567;48.276;14.242;2023-07-09T06:51:45;16.75;;;7.95;;
39896;SDS011;25567;48.276;14.242;2023-07-09T06:54:13;17.98;;;8.38;;
39896;SDS011;25567;48.276;14.242;2023-07-09T06:56:41;22.58;;;9.43;;
39896;SDS011;25567;48.276;14.242;2023-07-09T06:59:08;18.75;;;8.82;;
39896;SDS011;25567;48.276;14.242;2023-07-09T07:01:36;18.25;;;8.85;;
39896;SDS011;25567;48.276;14.242;2023-07-09T07:04:03;19.60;;;9.40;;
39896;SDS011;25567;48.276;14.242;2023-07-09T07:06:30;17.02;;;8.95;;
39896;SDS011;25567;48.276;14.242;2023-07-09T07:08:57;19.02;;;9.05;;
39896;SDS011;25567;48.276;14.242;2023-07-09T07:11:24;21.83;;;9.43;;
39896;SDS011;25567;48.276;14.242;2023-07-09T07:13:56;16.67;;;8.68;;
39896;SDS011;25567;48.276;14.242;2023-07-09T07:16:24;20.50;;;9.02;;
39896;SDS011;25567;48.276;14.242;2023-07-09T07:18:51;14.63;;;8.60;;
39896;SDS011;25567;48.276;14.242;2023-07-09T07:21:18;21.90;;;10.07;;
39896;SDS011;25567;48.276;14.242;2023-07-09T07:23:44;17.00;;;8.93;;
39896;SDS011;25567;48.276;14.242;2023-07-09T07:26:11;24.60;;;9.13;;
39896;SDS011;25567;48.276;14.242;2023-07-09T07:28:37;18.52;;;8.85;;
39896;SDS011;25567;48.276;14.242;2023-07-09T07:31:05;19.15;;;9.13;;
39896;SDS011;25567;48.276;14.242;2023-07-09T07:33:34;24.88;;;9.93;;
39896;SDS011;25567;48.276;14.242;2023-07-09T07:36:03;19.77;;;8.82;;
39896;SDS011;25567;48.276;14.242;2023-07-09T07:38:33;24.63;;;8.93;;
39896;SDS011;25567;48.276;14.242;2023-07-09T07:41:00;16.30;;;8.15;;
39896;SDS011;25567;48.276;14.242;2023-07-09T07:43:27;18.15;;;9.25;;
39896;SDS011;25567;48.276;14.242;2023-07-09T07:45:54;14.63;;;8.07;;
39896;SDS011;25567;48.276;14.242;2023-07-09T07:48:21;19.73;;;9.60;;
39896;SDS011;25567;48.276;14.242;2023-07-09T07:50:47;15.65;;;7.93;;
39896;SDS011;25567;48.276;14.242;2023-07-09T07:53:14;14.88;;;7.82;;
39896;SDS011;25567;48.276;14.242;2023-07-09T07:55:41;18.48;;;8.98;;
39896;SDS011;25567;48.276;14.242;2023-07-09T07:58:10;15.80;;;8.75;;
39896;SDS011;25567;48.276;14.242;2023-07-09T08:00:37;17.50;;;8.23;;
39896;SDS011;25567;48.276;14.242;2023-07-09T08:03:06;21.20;;;8.40;;
39896;SDS011;25567;48.276;14.242;2023-07-09T08:05:33;14.13;;;7.88;;
39896;SDS011;25567;48.276;14.242;2023-07-09T08:08:00;15.13;;;8.00;;
39896;SDS011;25567;48.276;14.242;2023-07-09T08:10:26;17.52;;;8.35;;
39896;SDS011;25567;48.276;14.242;2023-07-09T08:12:53;12.88;;;7.30;;
39896;SDS011;25567;48.276;14.242;2023-07-09T08:15:23;22.10;;;7.82;;
39896;SDS011;25567;48.276;14.242;2023-07-09T08:17:50;17.77;;;8.02;;
39896;SDS011;25567;48.276;14.242;2023-07-09T08:20:17;17.92;;;8.02;;
39896;SDS011;25567;48.276;14.242;2023-07-09T08:22:44;12.93;;;7.53;;
39896;SDS011;25567;48.276;14.242;2023-07-09T08:25:10;14.00;;;7.97;;
39896;SDS011;25567;48.276;14.242;2023-07-09T08:27:37;22.05;;;9.00;;
39896;SDS011;25567;48.276;14.242;2023-07-09T08:30:04;15.90;;;8.07;;
39896;SDS011;25567;48.276;14.242;2023-07-09T08:32:31;15.23;;;8.43;;
39896;SDS011;25567;48.276;14.242;2023-07-09T08:34:57;14.38;;;8.30;;
39896;SDS011;25567;48.276;14.242;2023-07-09T08:37:27;21.05;;;8.35;;
39896;SDS011;25567;48.276;14.242;2023-07-09T08:39:53;15.35;;;8.68;;
39896;SDS011;25567;48.276;14.242;2023-07-09T08:42:29;17.23;;;8.98;;
39896;SDS011;25567;48.276;14.242;2023-07-09T08:50:11;17.13;;;8.20;;
39896;SDS011;25567;48.276;14.242;2023-07-09T08:52:43;15.70;;;8.80;;
39896;SDS011;25567;48.276;14.242;2023-07-09T08:55:20;18.45;;;9.23;;
39896;SDS011;25567;48.276;14.242;2023-07-09T08:57:48;17.08;;;8.38;;
39896;SDS011;25567;48.276;14.242;2023-07-09T09:00:17;17.27;;;8.68;;
39896;SDS011;25567;48.276;14.242;2023-07-09T09:05:30;16.40;;;8.73;;
39896;SDS011;25567;48.276;14.242;2023-07-09T09:08:02;15.95;;;7.80;;
39896;SDS011;25567;48.276;14.242;2023-07-09T09:10:36;18.25;;;9.02;;
39896;SDS011;25567;48.276;14.242;2023-07-09T09:15:32;15.90;;;8.80;;
39896;SDS011;25567;48.276;14.242;2023-07-09T09:18:10;13.23;;;7.80;;
39896;SDS011;25567;48.276;14.242;2023-07-09T09:20:40;16.95;;;7.90;;
39896;SDS011;25567;48.276;14.242;2023-07-09T09:25:35;15.77;;;7.78;;
39896;SDS011;25567;48.276;14.242;2023-07-09T09:28:03;13.80;;;7.90;;
39896;SDS011;25567;48.276;14.242;2023-07-09T09:30:30;18.65;;;8.20;;
39896;SDS011;25567;48.276;14.242;2023-07-09T09:33:01;15.73;;;7.88;;
39896;SDS011;25567;48.276;14.242;2023-07-09T09:35:29;14.60;;;7.68;;
39896;SDS011;25567;48.276;14.242;2023-07-09T09:37:57;13.50;;;7.07;;
39896;SDS011;25567;48.276;14.242;2023-07-09T09:40:24;12.02;;;6.90;;
39896;SDS011;25567;48.276;14.242;2023-07-09T09:42:56;16.55;;;7.53;;
39896;SDS011;25567;48.276;14.242;2023-07-09T09:45:27;13.13;;;7.20;;
39896;SDS011;25567;48.276;14.242;2023-07-09T09:47:58;13.27;;;7.47;;
39896;SDS011;25567;48.276;14.242;2023-07-09T09:50:25;17.65;;;7.00;;
39896;SDS011;25567;48.276;14.242;2023-07-09T09:52:53;11.55;;;6.38;;
39896;SDS011;25567;48.276;14.242;2023-07-09T09:55:22;9.85;;;6.05;;
39896;SDS011;25567;48.276;14.242;2023-07-09T09:57:50;11.70;;;5.72;;
39896;SDS011;25567;48.276;14.242;2023-07-09T10:00:17;10.90;;;6.50;;
39896;SDS011;25567;48.276;14.242;2023-07-09T10:02:44;12.00;;;6.18;;
39896;SDS011;25567;48.276;14.242;2023-07-09T10:05:14;11.68;;;6.13;;
39896;SDS011;25567;48.276;14.242;2023-07-09T10:07:54;12.10;;;5.95;;
39896;SDS011;25567;48.276;14.242;2023-07-09T10:10:24;18.17;;;6.43;;
39896;SDS011;25567;48.276;14.242;2023-07-09T10:12:58;11.35;;;6.30;;
39896;SDS011;25567;48.276;14.242;2023-07-09T10:33:11;9.23;;;5.53;;
39896;SDS011;25567;48.276;14.242;2023-07-09T10:35:50;14.65;;;5.80;;
39896;SDS011;25567;48.276;14.242;2023-07-09T10:41:00;11.48;;;5.20;;
39896;SDS011;25567;48.276;14.242;2023-07-09T10:46:30;9.85;;;5.07;;
39896;SDS011;25567;48.276;14.242;2023-07-09T10:48:58;9.32;;;5.60;;
39896;SDS011;25567;48.276;14.242;2023-07-09T10:56:39;9.10;;;5.57;;
39896;SDS011;25567;48.276;14.242;2023-07-09T11:04:10;13.27;;;5.10;;
39896;SDS011;25567;48.276;14.242;2023-07-09T11:06:39;12.38;;;4.90;;
39896;SDS011;25567;48.276;14.242;2023-07-09T11:09:11;7.78;;;4.57;;
39896;SDS011;25567;48.276;14.242;2023-07-09T11:11:41;8.32;;;4.45;;
39896;SDS011;25567;48.276;14.242;2023-07-09T11:14:12;8.18;;;5.20;;
39896;SDS011;25567;48.276;14.242;2023-07-09T11:16:39;8.60;;;4.70;;
39896;SDS011;25567;48.276;14.242;2023-07-09T11:19:13;9.65;;;5.22;;
39896;SDS011;25567;48.276;14.242;2023-07-09T11:21:44;9.75;;;5.40;;
39896;SDS011;25567;48.276;14.242;2023-07-09T11:24:25;7.55;;;4.88;;
39896;SDS011;25567;48.276;14.242;2023-07-09T11:26:54;9.63;;;5.18;;
39896;SDS011;25567;48.276;14.242;2023-07-09T11:29:23;7.97;;;4.65;;
39896;SDS011;25567;48.276;14.242;2023-07-09T11:31:49;6.47;;;4.45;;
39896;SDS011;25567;48.276;14.242;2023-07-09T11:34:18;8.18;;;4.97;;
39896;SDS011;25567;48.276;14.242;2023-07-09T11:36:58;8.48;;;4.97;;
39896;SDS011;25567;48.276;14.242;2023-07-09T11:39:41;6.72;;;4.10;;
39896;SDS011;25567;48.276;14.242;2023-07-09T11:44:56;8.02;;;3.97;;
39896;SDS011;25567;48.276;14.242;2023-07-09T11:47:25;7.75;;;4.47;;
39896;SDS011;25567;48.276;14.242;2023-07-09T11:49:55;10.02;;;4.63;;
39896;SDS011;25567;48.276;14.242;2023-07-09T11:52:26;7.55;;;4.45;;
39896;SDS011;25567;48.276;14.242;2023-07-09T11:54:53;8.77;;;4.72;;
39896;SDS011;25567;48.276;14.242;2023-07-09T11:57:20;9.70;;;4.45;;
39896;SDS011;25567;48.276;14.242;2023-07-09T11:59:47;8.27;;;4.88;;
39896;SDS011;25567;48.276;14.242;2023-07-09T12:02:15;8.77;;;4.47;;
39896;SDS011;25567;48.276;14.242;2023-07-09T12:04:42;10.07;;;4.90;;
39896;SDS011;25567;48.276;14.242;2023-07-09T12:07:09;6.78;;;4.75;;
39896;SDS011;25567;48.276;14.242;2023-07-09T12:09:40;7.07;;;4.80;;
39896;SDS011;25567;48.276;14.242;2023-07-09T12:12:21;10.55;;;5.22;;
39896;SDS011;25567;48.276;14.242;2023-07-09T12:14:48;9.80;;;4.88;;
39896;SDS011;25567;48.276;14.242;2023-07-09T12:17:15;9.98;;;5.05;;
39896;SDS011;25567;48.276;14.242;2023-07-09T12:19:41;10.27;;;5.68;;
39896;SDS011;25567;48.276;14.242;2023-07-09T12:22:26;13.55;;;5.07;;
39896;SDS011;25567;48.276;14.242;2023-07-09T12:24:52;12.50;;;5.30;;
39896;SDS011;25567;48.276;14.242;2023-07-09T12:27:22;9.40;;;4.82;;
39896;SDS011;25567;48.276;14.242;2023-07-09T12:29:50;9.60;;;5.47;;
39896;SDS011;25567;48.276;14.242;2023-07-09T12:32:17;9.15;;;5.25;;
39896;SDS011;25567;48.276;14.242;2023-07-09T12:34:49;12.75;;;5.30;;
39896;SDS011;25567;48.276;14.242;2023-07-09T12:37:16;8.15;;;4.72;;
39896;SDS011;25567;48.276;14.242;2023-07-09T12:39:42;8.07;;;5.20;;
39896;SDS011;25567;48.276;14.242;2023-07-09T12:42:15;9.50;;;4.72;;
39896;SDS011;25567;48.276;14.242;2023-07-09T12:44:42;9.30;;;4.75;;
39896;SDS011;25567;48.276;14.242;2023-07-09T12:47:12;8.50;;;4.63;;
39896;SDS011;25567;48.276;14.242;2023-07-09T12:49:43;8.20;;;4.45;;
39896;SDS011;25567;48.276;14.242;2023-07-09T12:52:12;8.50;;;4.60;;
39896;SDS011;25567;48.276;14.242;2023-07-09T12:54:40;8.20;;;4.07;;
39896;SDS011;25567;48.276;14.242;2023-07-09T12:57:16;9.30;;;4.38;;
39896;SDS011;25567;48.276;14.242;2023-07-09T12:59:45;20.88;;;4.65;;
39896;SDS011;25567;48.276;14.242;2023-07-09T13:02:19;8.27;;;4.95;;
39896;SDS011;25567;48.276;14.242;2023-07-09T13:04:46;9.35;;;5.18;;
39896;SDS011;25567;48.276;14.242;2023-07-09T13:07:26;11.75;;;5.20;;
39896;SDS011;25567;48.276;14.242;2023-07-09T13:09:54;7.32;;;4.68;;
39896;SDS011;25567;48.276;14.242;2023-07-09T13:12:28;8.32;;;4.82;;
39896;SDS011;25567;48.276;14.242;2023-07-09T13:14:55;10.50;;;5.10;;
39896;SDS011;25567;48.276;14.242;2023-07-09T13:17:30;13.88;;;5.00;;
39896;SDS011;25567;48.276;14.242;2023-07-09T13:19:57;8.50;;;4.93;;
39896;SDS011;25567;48.276;14.242;2023-07-09T13:22:23;11.10;;;5.20;;
39896;SDS011;25567;48.276;14.242;2023-07-09T13:24:51;8.20;;;4.80;;
39896;SDS011;25567;48.276;14.242;2023-07-09T13:27:17;10.35;;;5.07;;
39896;SDS011;25567;48.276;14.242;2023-07-09T13:29:44;7.43;;;4.93;;
39896;SDS011;25567;48.276;14.242;2023-07-09T13:32:13;9.00;;;5.15;;
39896;SDS011;25567;48.276;14.242;2023-07-09T13:34:40;10.88;;;4.72;;
39896;SDS011;25567;48.276;14.242;2023-07-09T13:37:14;7.85;;;5.10;;
39896;SDS011;25567;48.276;14.242;2023-07-09T13:39:41;7.03;;;4.78;;
39896;SDS011;25567;48.276;14.242;2023-07-09T13:42:12;9.13;;;4.45;;
39896;SDS011;25567;48.276;14.242;2023-07-09T13:44:40;9.27;;;4.70;;
39896;SDS011;25567;48.276;14.242;2023-07-09T13:47:09;10.68;;;5.05;;
39896;SDS011;25567;48.276;14.242;2023-07-09T13:49:37;9.63;;;5.20;;
39896;SDS011;25567;48.276;14.242;2023-07-09T13:52:04;7.40;;;5.00;;
39896;SDS011;25567;48.276;14.242;2023-07-09T13:54:32;7.93;;;4.57;;
39896;SDS011;25567;48.276;14.242;2023-07-09T13:57:07;13.23;;;4.72;;
39896;SDS011;25567;48.276;14.242;2023-07-09T13:59:37;9.27;;;4.45;;
39896;SDS011;25567;48.276;14.242;2023-07-09T14:02:07;9.15;;;4.80;;
39896;SDS011;25567;48.276;14.242;2023-07-09T14:04:39;8.07;;;4.88;;
39896;SDS011;25567;48.276;14.242;2023-07-09T14:07:07;11.00;;;4.97;;
39896;SDS011;25567;48.276;14.242;2023-07-09T14:09:35;6.95;;;4.93;;
39896;SDS011;25567;48.276;14.242;2023-07-09T14:12:02;11.10;;;5.10;;
39896;SDS011;25567;48.276;14.242;2023-07-09T14:14:30;11.88;;;4.90;;
39896;SDS011;25567;48.276;14.242;2023-07-09T14:16:58;7.07;;;4.72;;
39896;SDS011;25567;48.276;14.242;2023-07-09T14:19:26;7.63;;;5.10;;
39896;SDS011;25567;48.276;14.242;2023-07-09T14:21:53;7.28;;;4.47;;
39896;SDS011;25567;48.276;14.242;2023-07-09T14:24:24;5.93;;;4.32;;
39896;SDS011;25567;48.276;14.242;2023-07-09T14:26:52;7.53;;;4.80;;
39896;SDS011;25567;48.276;14.242;2023-07-09T14:29:18;7.85;;;4.95;;
39896;SDS011;25567;48.276;14.242;2023-07-09T14:31:45;8.02;;;4.63;;
39896;SDS011;25567;48.276;14.242;2023-07-09T14:36:41;15.93;;;4.90;;
39896;SDS011;25567;48.276;14.242;2023-07-09T14:39:09;10.45;;;5.20;;
39896;SDS011;25567;48.276;14.242;2023-07-09T14:41:36;12.38;;;4.75;;
39896;SDS011;25567;48.276;14.242;2023-07-09T14:44:02;8.68;;;5.03;;
39896;SDS011;25567;48.276;14.242;2023-07-09T14:46:31;10.15;;;5.05;;
39896;SDS011;25567;48.276;14.242;2023-07-09T14:48:57;7.53;;;5.00;;
39896;SDS011;25567;48.276;14.242;2023-07-09T14:51:24;7.82;;;4.88;;
39896;SDS011;25567;48.276;14.242;2023-07-09T14:53:51;8.77;;;5.38;;
39896;SDS011;25567;48.276;14.242;2023-07-09T14:56:18;7.68;;;4.78;;
39896;SDS011;25567;48.276;14.242;2023-07-09T14:58:45;8.60;;;5.00;;
39896;SDS011;25567;48.276;14.242;2023-07-09T15:01:15;8.40;;;4.95;;
39896;SDS011;25567;48.276;14.242;2023-07-09T15:03:43;7.53;;;4.68;;
39896;SDS011;25567;48.276;14.242;2023-07-09T15:06:10;12.52;;;5.10;;
39896;SDS011;25567;48.276;14.242;2023-07-09T15:08:37;8.95;;;5.35;;
39896;SDS011;25567;48.276;14.242;2023-07-09T15:11:04;10.95;;;4.70;;
39896;SDS011;25567;48.276;14.242;2023-07-09T15:13:32;11.35;;;5.05;;
39896;SDS011;25567;48.276;14.242;2023-07-09T15:16:00;14.30;;;5.20;;
39896;SDS011;25567;48.276;14.242;2023-07-09T15:18:27;10.40;;;5.25;;
39896;SDS011;25567;48.276;14.242;2023-07-09T15:20:55;7.85;;;4.60;;
39896;SDS011;25567;48.276;14.242;2023-07-09T15:23:22;7.03;;;4.82;;